sensor_id;sensor_type;location;lat;lon;timestamp;temperature;humidity
27016;DHT22;14557;0.000;0.000;2023-04-24T00:00:54;21.50;57.20
27016;DHT22;14557;0.000;0.000;2023-04-24T00:03:22;21.50;57.10
27016;DHT22;14557;0.000;0.000;2023-04-24T00:05:48;21.50;57.00
27016;DHT22;14557;0.000;0.000;2023-04-24T00:08:13;21.50;57.00
27016;DHT22;14557;0.000;0.000;2023-04-24T00:10:39;21.50;56.90
27016;DHT22;14557;0.000;0.000;2023-04-24T00:13:04;21.50;56.90
27016;DHT22;14557;0.000;0.000;2023-04-24T00:15:30;21.50;56.90
27016;DHT22;14557;0.000;0.000;2023-04-24T00:17:56;21.50;56.90
27016;DHT22;14557;0.000;0.000;2023-04-24T00:20:21;21.50;56.80
27016;DHT22;14557;0.000;0.000;2023-04-24T00:22:47;21.50;56.70
27016;DHT22;14557;0.000;0.000;2023-04-24T00:25:13;21.50;56.70
27016;DHT22;14557;0.000;0.000;2023-04-24T00:27:39;21.40;56.60
27016;DHT22;14557;0.000;0.000;2023-04-24T00:30:04;21.40;56.60
27016;DHT22;14557;0.000;0.000;2023-04-24T00:32:30;21.40;56.70
27016;DHT22;14557;0.000;0.000;2023-04-24T00:34:56;21.40;56.50
27016;DHT22;14557;0.000;0.000;2023-04-24T00:37:21;21.40;56.50
27016;DHT22;14557;0.000;0.000;2023-04-24T00:39:47;21.40;56.50
27016;DHT22;14557;0.000;0.000;2023-04-24T00:42:12;21.30;56.50
27016;DHT22;14557;0.000;0.000;2023-04-24T00:44:38;21.30;56.40
27016;DHT22;14557;0.000;0.000;2023-04-24T00:47:04;21.30;56.40
27016;DHT22;14557;0.000;0.000;2023-04-24T00:49:29;21.50;56.50
27016;DHT22;14557;0.000;0.000;2023-04-24T00:51:56;21.30;56.40
27016;DHT22;14557;0.000;0.000;2023-04-24T00:54:22;21.30;56.50
27016;DHT22;14557;0.000;0.000;2023-04-24T00:56:47;21.30;56.40
27016;DHT22;14557;0.000;0.000;2023-04-24T00:59:14;21.20;56.30
27016;DHT22;14557;0.000;0.000;2023-04-24T01:01:41;21.20;56.20
27016;DHT22;14557;0.000;0.000;2023-04-24T01:04:07;21.20;56.20
27016;DHT22;14557;0.000;0.000;2023-04-24T01:06:33;21.20;56.20
27016;DHT22;14557;0.000;0.000;2023-04-24T01:08:59;21.20;56.20
27016;DHT22;14557;0.000;0.000;2023-04-24T01:11:25;21.20;56.10
27016;DHT22;14557;0.000;0.000;2023-04-24T01:13:51;21.20;56.10
27016;DHT22;14557;0.000;0.000;2023-04-24T01:16:17;21.20;56.10
27016;DHT22;14557;0.000;0.000;2023-04-24T01:18:43;21.20;56.00
27016;DHT22;14557;0.000;0.000;2023-04-24T01:21:09;21.10;56.00
27016;DHT22;14557;0.000;0.000;2023-04-24T01:23:36;21.20;56.00
27016;DHT22;14557;0.000;0.000;2023-04-24T01:26:01;21.10;55.90
27016;DHT22;14557;0.000;0.000;2023-04-24T01:28:27;21.10;55.90
27016;DHT22;14557;0.000;0.000;2023-04-24T01:30:53;21.10;55.90
27016;DHT22;14557;0.000;0.000;2023-04-24T01:33:20;21.10;55.90
27016;DHT22;14557;0.000;0.000;2023-04-24T01:35:46;21.00;55.80
27016;DHT22;14557;0.000;0.000;2023-04-24T01:38:11;21.00;55.80
27016;DHT22;14557;0.000;0.000;2023-04-24T01:40:37;21.00;55.80
27016;DHT22;14557;0.000;0.000;2023-04-24T01:43:03;21.00;55.70
27016;DHT22;14557;0.000;0.000;2023-04-24T01:45:28;21.10;55.80
27016;DHT22;14557;0.000;0.000;2023-04-24T01:47:54;21.00;55.70
27016;DHT22;14557;0.000;0.000;2023-04-24T01:50:20;21.00;55.80
27016;DHT22;14557;0.000;0.000;2023-04-24T01:52:45;21.00;55.70
27016;DHT22;14557;0.000;0.000;2023-04-24T01:55:11;21.00;55.70
27016;DHT22;14557;0.000;0.000;2023-04-24T01:57:36;21.00;55.60
27016;DHT22;14557;0.000;0.000;2023-04-24T02:00:03;21.00;55.70
27016;DHT22;14557;0.000;0.000;2023-04-24T02:02:30;21.00;55.70
27016;DHT22;14557;0.000;0.000;2023-04-24T02:04:56;20.90;55.60
27016;DHT22;14557;0.000;0.000;2023-04-24T02:07:21;20.90;55.60
27016;DHT22;14557;0.000;0.000;2023-04-24T02:09:47;20.90;55.50
27016;DHT22;14557;0.000;0.000;2023-04-24T02:12:13;20.90;55.50
27016;DHT22;14557;0.000;0.000;2023-04-24T02:14:39;20.90;55.50
27016;DHT22;14557;0.000;0.000;2023-04-24T02:17:04;20.90;55.60
27016;DHT22;14557;0.000;0.000;2023-04-24T02:19:30;20.80;55.40
27016;DHT22;14557;0.000;0.000;2023-04-24T02:21:56;20.80;55.30
27016;DHT22;14557;0.000;0.000;2023-04-24T02:24:21;20.80;55.10
27016;DHT22;14557;0.000;0.000;2023-04-24T02:26:47;20.80;55.10
27016;DHT22;14557;0.000;0.000;2023-04-24T02:29:13;20.80;55.10
27016;DHT22;14557;0.000;0.000;2023-04-24T02:31:38;20.80;55.10
27016;DHT22;14557;0.000;0.000;2023-04-24T02:34:04;20.80;55.20
27016;DHT22;14557;0.000;0.000;2023-04-24T02:36:29;20.80;55.20
27016;DHT22;14557;0.000;0.000;2023-04-24T02:38:55;20.70;55.20
27016;DHT22;14557;0.000;0.000;2023-04-24T02:41:21;20.70;55.10
27016;DHT22;14557;0.000;0.000;2023-04-24T02:43:46;20.70;55.10
27016;DHT22;14557;0.000;0.000;2023-04-24T02:46:12;20.60;55.00
27016;DHT22;14557;0.000;0.000;2023-04-24T02:48:38;20.60;54.90
27016;DHT22;14557;0.000;0.000;2023-04-24T02:51:03;20.60;54.90
27016;DHT22;14557;0.000;0.000;2023-04-24T02:53:29;20.60;54.90
27016;DHT22;14557;0.000;0.000;2023-04-24T02:55:55;20.60;54.80
27016;DHT22;14557;0.000;0.000;2023-04-24T02:58:21;20.60;54.80
27016;DHT22;14557;0.000;0.000;2023-04-24T03:00:47;20.60;54.80
27016;DHT22;14557;0.000;0.000;2023-04-24T03:03:12;20.50;54.60
27016;DHT22;14557;0.000;0.000;2023-04-24T03:05:38;20.50;54.60
27016;DHT22;14557;0.000;0.000;2023-04-24T03:08:04;20.50;54.60
27016;DHT22;14557;0.000;0.000;2023-04-24T03:10:30;20.50;54.50
27016;DHT22;14557;0.000;0.000;2023-04-24T03:12:56;20.50;54.60
27016;DHT22;14557;0.000;0.000;2023-04-24T03:15:21;20.50;54.50
27016;DHT22;14557;0.000;0.000;2023-04-24T03:17:47;20.40;54.40
27016;DHT22;14557;0.000;0.000;2023-04-24T03:20:13;20.40;54.40
27016;DHT22;14557;0.000;0.000;2023-04-24T03:22:38;20.40;54.40
27016;DHT22;14557;0.000;0.000;2023-04-24T03:25:04;20.40;54.40
27016;DHT22;14557;0.000;0.000;2023-04-24T03:27:30;20.40;54.40
27016;DHT22;14557;0.000;0.000;2023-04-24T03:29:56;20.40;54.40
27016;DHT22;14557;0.000;0.000;2023-04-24T03:32:21;20.40;54.40
27016;DHT22;14557;0.000;0.000;2023-04-24T03:34:48;20.30;54.30
27016;DHT22;14557;0.000;0.000;2023-04-24T03:37:14;20.30;54.30
27016;DHT22;14557;0.000;0.000;2023-04-24T03:39:40;20.30;54.40
27016;DHT22;14557;0.000;0.000;2023-04-24T03:42:05;20.30;54.30
27016;DHT22;14557;0.000;0.000;2023-04-24T03:44:31;20.20;54.20
27016;DHT22;14557;0.000;0.000;2023-04-24T03:46:57;20.20;54.20
27016;DHT22;14557;0.000;0.000;2023-04-24T03:49:23;20.20;54.10
27016;DHT22;14557;0.000;0.000;2023-04-24T03:51:48;20.20;54.10
27016;DHT22;14557;0.000;0.000;2023-04-24T03:54:14;20.10;54.00
27016;DHT22;14557;0.000;0.000;2023-04-24T03:56:40;20.10;54.00
27016;DHT22;14557;0.000;0.000;2023-04-24T03:59:05;20.10;54.00
27016;DHT22;14557;0.000;0.000;2023-04-24T04:01:31;20.10;54.10
27016;DHT22;14557;0.000;0.000;2023-04-24T04:03:56;20.10;54.00
27016;DHT22;14557;0.000;0.000;2023-04-24T04:06:22;20.10;54.00
27016;DHT22;14557;0.000;0.000;2023-04-24T04:08:47;20.10;54.00
27016;DHT22;14557;0.000;0.000;2023-04-24T04:11:13;20.00;53.80
27016;DHT22;14557;0.000;0.000;2023-04-24T04:13:39;20.00;53.90
27016;DHT22;14557;0.000;0.000;2023-04-24T04:16:04;20.10;53.80
27016;DHT22;14557;0.000;0.000;2023-04-24T04:18:30;19.90;53.70
27016;DHT22;14557;0.000;0.000;2023-04-24T04:20:56;20.00;53.70
27016;DHT22;14557;0.000;0.000;2023-04-24T04:23:22;20.00;53.60
27016;DHT22;14557;0.000;0.000;2023-04-24T04:25:48;20.00;53.70
27016;DHT22;14557;0.000;0.000;2023-04-24T04:28:13;20.00;53.80
27016;DHT22;14557;0.000;0.000;2023-04-24T04:30:40;20.00;53.70
27016;DHT22;14557;0.000;0.000;2023-04-24T04:33:06;19.90;53.50
27016;DHT22;14557;0.000;0.000;2023-04-24T04:35:33;19.90;53.50
27016;DHT22;14557;0.000;0.000;2023-04-24T04:37:59;19.90;53.40
27016;DHT22;14557;0.000;0.000;2023-04-24T04:40:24;19.90;53.50
27016;DHT22;14557;0.000;0.000;2023-04-24T04:42:50;19.90;53.50
27016;DHT22;14557;0.000;0.000;2023-04-24T04:45:18;19.90;54.10
27016;DHT22;14557;0.000;0.000;2023-04-24T04:47:43;19.80;53.60
27016;DHT22;14557;0.000;0.000;2023-04-24T04:50:09;19.80;53.60
27016;DHT22;14557;0.000;0.000;2023-04-24T04:52:35;19.80;53.60
27016;DHT22;14557;0.000;0.000;2023-04-24T04:55:01;19.80;53.50
27016;DHT22;14557;0.000;0.000;2023-04-24T04:57:27;19.80;53.70
27016;DHT22;14557;0.000;0.000;2023-04-24T04:59:52;19.80;53.70
27016;DHT22;14557;0.000;0.000;2023-04-24T05:02:18;19.70;53.80
27016;DHT22;14557;0.000;0.000;2023-04-24T05:04:44;19.70;53.70
27016;DHT22;14557;0.000;0.000;2023-04-24T05:07:10;19.70;53.70
27016;DHT22;14557;0.000;0.000;2023-04-24T05:09:36;19.70;53.80
27016;DHT22;14557;0.000;0.000;2023-04-24T05:12:02;19.70;53.60
27016;DHT22;14557;0.000;0.000;2023-04-24T05:14:28;19.70;53.50
27016;DHT22;14557;0.000;0.000;2023-04-24T05:16:53;19.70;53.50
27016;DHT22;14557;0.000;0.000;2023-04-24T05:19:19;19.70;53.40
27016;DHT22;14557;0.000;0.000;2023-04-24T05:21:45;19.70;53.30
27016;DHT22;14557;0.000;0.000;2023-04-24T05:24:10;19.60;53.40
27016;DHT22;14557;0.000;0.000;2023-04-24T05:26:36;19.70;53.40
27016;DHT22;14557;0.000;0.000;2023-04-24T05:29:02;19.60;53.20
27016;DHT22;14557;0.000;0.000;2023-04-24T05:31:28;19.60;53.20
27016;DHT22;14557;0.000;0.000;2023-04-24T05:33:53;19.60;53.30
27016;DHT22;14557;0.000;0.000;2023-04-24T05:36:19;19.60;53.20
27016;DHT22;14557;0.000;0.000;2023-04-24T05:38:44;19.60;53.20
27016;DHT22;14557;0.000;0.000;2023-04-24T05:41:10;19.60;53.10
27016;DHT22;14557;0.000;0.000;2023-04-24T05:43:36;19.60;53.20
27016;DHT22;14557;0.000;0.000;2023-04-24T05:46:01;19.50;53.20
27016;DHT22;14557;0.000;0.000;2023-04-24T05:48:27;19.50;53.30
27016;DHT22;14557;0.000;0.000;2023-04-24T05:50:52;19.50;53.30
27016;DHT22;14557;0.000;0.000;2023-04-24T05:53:18;19.50;53.30
27016;DHT22;14557;0.000;0.000;2023-04-24T05:55:44;19.50;53.30
27016;DHT22;14557;0.000;0.000;2023-04-24T05:58:10;19.50;53.30
27016;DHT22;14557;0.000;0.000;2023-04-24T06:00:36;19.50;53.30
27016;DHT22;14557;0.000;0.000;2023-04-24T06:03:01;19.40;53.30
27016;DHT22;14557;0.000;0.000;2023-04-24T06:05:29;19.40;53.30
27016;DHT22;14557;0.000;0.000;2023-04-24T06:07:55;19.40;53.50
27016;DHT22;14557;0.000;0.000;2023-04-24T06:10:21;19.40;53.40
27016;DHT22;14557;0.000;0.000;2023-04-24T06:12:46;19.40;53.40
27016;DHT22;14557;0.000;0.000;2023-04-24T06:15:12;19.40;53.40
27016;DHT22;14557;0.000;0.000;2023-04-24T06:17:38;19.40;53.30
27016;DHT22;14557;0.000;0.000;2023-04-24T06:20:04;19.40;53.20
27016;DHT22;14557;0.000;0.000;2023-04-24T06:22:31;19.40;53.30
27016;DHT22;14557;0.000;0.000;2023-04-24T06:24:56;19.40;53.10
27016;DHT22;14557;0.000;0.000;2023-04-24T06:27:22;19.40;53.20
27016;DHT22;14557;0.000;0.000;2023-04-24T06:29:47;19.40;53.30
27016;DHT22;14557;0.000;0.000;2023-04-24T06:32:21;19.30;53.00
27016;DHT22;14557;0.000;0.000;2023-04-24T06:34:46;19.30;53.20
27016;DHT22;14557;0.000;0.000;2023-04-24T06:37:12;19.30;53.20
27016;DHT22;14557;0.000;0.000;2023-04-24T06:39:37;19.30;53.20
27016;DHT22;14557;0.000;0.000;2023-04-24T06:42:03;19.30;53.30
27016;DHT22;14557;0.000;0.000;2023-04-24T06:44:29;19.30;53.50
27016;DHT22;14557;0.000;0.000;2023-04-24T06:46:54;19.30;53.50
27016;DHT22;14557;0.000;0.000;2023-04-24T06:49:20;19.30;53.60
27016;DHT22;14557;0.000;0.000;2023-04-24T06:51:46;19.30;53.70
27016;DHT22;14557;0.000;0.000;2023-04-24T06:54:12;19.30;53.70
27016;DHT22;14557;0.000;0.000;2023-04-24T06:56:38;19.30;53.80
27016;DHT22;14557;0.000;0.000;2023-04-24T06:59:03;19.30;53.80
27016;DHT22;14557;0.000;0.000;2023-04-24T07:01:29;19.20;53.90
27016;DHT22;14557;0.000;0.000;2023-04-24T07:03:54;19.20;53.90
27016;DHT22;14557;0.000;0.000;2023-04-24T07:06:20;19.20;54.00
27016;DHT22;14557;0.000;0.000;2023-04-24T07:08:48;19.20;54.00
27016;DHT22;14557;0.000;0.000;2023-04-24T07:11:13;19.20;53.90
27016;DHT22;14557;0.000;0.000;2023-04-24T07:13:39;19.20;54.00
27016;DHT22;14557;0.000;0.000;2023-04-24T07:16:07;19.20;54.00
27016;DHT22;14557;0.000;0.000;2023-04-24T07:18:33;19.20;54.00
27016;DHT22;14557;0.000;0.000;2023-04-24T07:20:59;19.20;54.00
27016;DHT22;14557;0.000;0.000;2023-04-24T07:23:24;19.20;53.90
27016;DHT22;14557;0.000;0.000;2023-04-24T07:25:50;19.20;54.20
27016;DHT22;14557;0.000;0.000;2023-04-24T07:28:15;19.30;58.90
27016;DHT22;14557;0.000;0.000;2023-04-24T07:30:43;19.50;58.30
27016;DHT22;14557;0.000;0.000;2023-04-24T07:33:08;19.70;58.00
27016;DHT22;14557;0.000;0.000;2023-04-24T07:35:36;19.70;56.40
27016;DHT22;14557;0.000;0.000;2023-04-24T07:38:02;19.80;56.20
27016;DHT22;14557;0.000;0.000;2023-04-24T07:40:27;19.80;56.30
27016;DHT22;14557;0.000;0.000;2023-04-24T07:42:53;19.80;56.10
27016;DHT22;14557;0.000;0.000;2023-04-24T07:45:18;19.80;56.00
27016;DHT22;14557;0.000;0.000;2023-04-24T07:47:44;19.80;55.70
27016;DHT22;14557;0.000;0.000;2023-04-24T07:50:11;19.90;55.50
27016;DHT22;14557;0.000;0.000;2023-04-24T07:52:37;19.90;55.20
27016;DHT22;14557;0.000;0.000;2023-04-24T07:55:03;19.90;55.00
27016;DHT22;14557;0.000;0.000;2023-04-24T07:57:30;19.80;54.90
27016;DHT22;14557;0.000;0.000;2023-04-24T07:59:55;19.80;54.70
27016;DHT22;14557;0.000;0.000;2023-04-24T08:02:21;19.80;54.70
27016;DHT22;14557;0.000;0.000;2023-04-24T08:04:54;19.80;58.00
27016;DHT22;14557;0.000;0.000;2023-04-24T08:07:19;19.80;56.30
27016;DHT22;14557;0.000;0.000;2023-04-24T08:09:45;19.90;58.60
27016;DHT22;14557;0.000;0.000;2023-04-24T08:12:11;19.80;56.10
27016;DHT22;14557;0.000;0.000;2023-04-24T08:14:36;19.90;60.00
27016;DHT22;14557;0.000;0.000;2023-04-24T08:17:02;19.90;58.20
27016;DHT22;14557;0.000;0.000;2023-04-24T08:19:28;20.20;57.90
27016;DHT22;14557;0.000;0.000;2023-04-24T08:21:54;20.30;57.00
27016;DHT22;14557;0.000;0.000;2023-04-24T08:24:19;20.50;55.60
27016;DHT22;14557;0.000;0.000;2023-04-24T08:26:45;20.40;55.40
27016;DHT22;14557;0.000;0.000;2023-04-24T08:29:11;20.30;55.20
27016;DHT22;14557;0.000;0.000;2023-04-24T08:31:36;20.20;55.10
27016;DHT22;14557;0.000;0.000;2023-04-24T08:34:02;20.10;55.10
27016;DHT22;14557;0.000;0.000;2023-04-24T08:36:27;20.00;55.20
27016;DHT22;14557;0.000;0.000;2023-04-24T08:38:53;20.00;55.20
27016;DHT22;14557;0.000;0.000;2023-04-24T08:41:18;20.00;55.10
27016;DHT22;14557;0.000;0.000;2023-04-24T08:43:47;19.90;55.00
27016;DHT22;14557;0.000;0.000;2023-04-24T08:46:13;20.00;55.20
27016;DHT22;14557;0.000;0.000;2023-04-24T08:48:39;19.90;55.00
27016;DHT22;14557;0.000;0.000;2023-04-24T08:51:06;19.90;54.80
27016;DHT22;14557;0.000;0.000;2023-04-24T08:53:32;19.90;54.80
27016;DHT22;14557;0.000;0.000;2023-04-24T08:55:57;19.90;54.40
27016;DHT22;14557;0.000;0.000;2023-04-24T08:58:26;20.00;54.40
27016;DHT22;14557;0.000;0.000;2023-04-24T09:00:54;20.00;54.50
27016;DHT22;14557;0.000;0.000;2023-04-24T09:03:20;20.00;55.00
27016;DHT22;14557;0.000;0.000;2023-04-24T09:05:46;20.00;55.00
27016;DHT22;14557;0.000;0.000;2023-04-24T09:08:12;20.00;54.80
27016;DHT22;14557;0.000;0.000;2023-04-24T09:10:39;20.10;54.90
27016;DHT22;14557;0.000;0.000;2023-04-24T09:13:04;20.10;54.80
27016;DHT22;14557;0.000;0.000;2023-04-24T09:15:31;20.10;54.50
27016;DHT22;14557;0.000;0.000;2023-04-24T09:17:57;20.20;55.00
27016;DHT22;14557;0.000;0.000;2023-04-24T09:20:22;20.20;55.00
27016;DHT22;14557;0.000;0.000;2023-04-24T09:22:48;20.20;55.00
27016;DHT22;14557;0.000;0.000;2023-04-24T09:25:18;20.30;54.70
27016;DHT22;14557;0.000;0.000;2023-04-24T09:27:44;20.20;55.50
27016;DHT22;14557;0.000;0.000;2023-04-24T09:30:10;20.30;55.60
27016;DHT22;14557;0.000;0.000;2023-04-24T09:32:36;20.30;55.90
27016;DHT22;14557;0.000;0.000;2023-04-24T09:35:09;20.20;55.90
27016;DHT22;14557;0.000;0.000;2023-04-24T09:37:35;20.30;55.90
27016;DHT22;14557;0.000;0.000;2023-04-24T09:40:08;20.30;56.30
27016;DHT22;14557;0.000;0.000;2023-04-24T09:42:33;20.30;56.60
27016;DHT22;14557;0.000;0.000;2023-04-24T09:44:59;20.30;56.70
27016;DHT22;14557;0.000;0.000;2023-04-24T09:47:25;20.30;57.30
27016;DHT22;14557;0.000;0.000;2023-04-24T09:49:50;20.20;57.00
27016;DHT22;14557;0.000;0.000;2023-04-24T09:52:19;20.20;57.40
27016;DHT22;14557;0.000;0.000;2023-04-24T09:54:52;20.20;57.90
27016;DHT22;14557;0.000;0.000;2023-04-24T09:57:17;20.20;58.40
27016;DHT22;14557;0.000;0.000;2023-04-24T09:59:45;20.20;58.80
27016;DHT22;14557;0.000;0.000;2023-04-24T10:02:20;20.20;59.30
27016;DHT22;14557;0.000;0.000;2023-04-24T10:04:55;20.20;59.80
27016;DHT22;14557;0.000;0.000;2023-04-24T10:07:25;20.20;61.50
27016;DHT22;14557;0.000;0.000;2023-04-24T10:09:51;20.20;61.60
27016;DHT22;14557;0.000;0.000;2023-04-24T10:12:16;20.20;63.50
27016;DHT22;14557;0.000;0.000;2023-04-24T10:14:42;20.30;63.60
27016;DHT22;14557;0.000;0.000;2023-04-24T10:17:09;20.30;64.20
27016;DHT22;14557;0.000;0.000;2023-04-24T10:19:35;20.30;63.00
27016;DHT22;14557;0.000;0.000;2023-04-24T10:22:02;20.30;62.40
27016;DHT22;14557;0.000;0.000;2023-04-24T10:24:29;20.40;62.60
27016;DHT22;14557;0.000;0.000;2023-04-24T10:26:55;20.40;62.60
27016;DHT22;14557;0.000;0.000;2023-04-24T10:29:22;20.40;62.00
27016;DHT22;14557;0.000;0.000;2023-04-24T10:31:48;20.50;62.60
27016;DHT22;14557;0.000;0.000;2023-04-24T10:34:14;20.50;63.10
27016;DHT22;14557;0.000;0.000;2023-04-24T10:36:41;20.50;63.90
27016;DHT22;14557;0.000;0.000;2023-04-24T10:39:09;20.50;65.90
27016;DHT22;14557;0.000;0.000;2023-04-24T10:41:37;20.50;66.90
27016;DHT22;14557;0.000;0.000;2023-04-24T10:44:12;20.60;66.30
27016;DHT22;14557;0.000;0.000;2023-04-24T10:46:39;20.60;64.00
27016;DHT22;14557;0.000;0.000;2023-04-24T10:49:06;20.60;64.60
27016;DHT22;14557;0.000;0.000;2023-04-24T10:51:50;20.60;66.30
27016;DHT22;14557;0.000;0.000;2023-04-24T10:54:26;20.60;68.40
27016;DHT22;14557;0.000;0.000;2023-04-24T10:56:52;20.70;72.80
27016;DHT22;14557;0.000;0.000;2023-04-24T10:59:25;20.70;70.40
27016;DHT22;14557;0.000;0.000;2023-04-24T11:01:54;20.70;72.20
27016;DHT22;14557;0.000;0.000;2023-04-24T11:04:29;20.80;67.60
27016;DHT22;14557;0.000;0.000;2023-04-24T11:06:55;20.80;67.50
27016;DHT22;14557;0.000;0.000;2023-04-24T11:09:21;20.80;66.60
27016;DHT22;14557;0.000;0.000;2023-04-24T11:11:46;20.90;66.60
27016;DHT22;14557;0.000;0.000;2023-04-24T11:14:15;20.90;66.50
27016;DHT22;14557;0.000;0.000;2023-04-24T11:16:43;20.90;66.20
27016;DHT22;14557;0.000;0.000;2023-04-24T11:21:48;21.00;66.10
27016;DHT22;14557;0.000;0.000;2023-04-24T11:24:27;21.10;64.60
27016;DHT22;14557;0.000;0.000;2023-04-24T11:26:54;21.10;66.40
27016;DHT22;14557;0.000;0.000;2023-04-24T11:29:20;21.10;65.90
27016;DHT22;14557;0.000;0.000;2023-04-24T11:31:46;21.10;64.30
27016;DHT22;14557;0.000;0.000;2023-04-24T11:34:15;21.10;63.20
27016;DHT22;14557;0.000;0.000;2023-04-24T11:36:47;21.10;62.90
27016;DHT22;14557;0.000;0.000;2023-04-24T11:39:13;21.10;62.40
27016;DHT22;14557;0.000;0.000;2023-04-24T11:41:39;21.10;61.90
27016;DHT22;14557;0.000;0.000;2023-04-24T11:44:06;21.10;62.60
27016;DHT22;14557;0.000;0.000;2023-04-24T11:46:32;21.10;66.60
27016;DHT22;14557;0.000;0.000;2023-04-24T11:48:58;21.10;64.20
27016;DHT22;14557;0.000;0.000;2023-04-24T11:51:24;21.10;63.90
27016;DHT22;14557;0.000;0.000;2023-04-24T11:53:51;21.10;63.80
27016;DHT22;14557;0.000;0.000;2023-04-24T11:56:21;21.10;63.90
27016;DHT22;14557;0.000;0.000;2023-04-24T11:58:47;21.10;64.10
27016;DHT22;14557;0.000;0.000;2023-04-24T12:01:12;21.10;64.30
27016;DHT22;14557;0.000;0.000;2023-04-24T12:03:38;21.10;64.60
27016;DHT22;14557;0.000;0.000;2023-04-24T12:06:10;21.10;65.40
27016;DHT22;14557;0.000;0.000;2023-04-24T12:08:36;21.10;64.90
27016;DHT22;14557;0.000;0.000;2023-04-24T12:11:02;21.20;64.80
27016;DHT22;14557;0.000;0.000;2023-04-24T12:13:28;21.20;66.30
27016;DHT22;14557;0.000;0.000;2023-04-24T12:15:53;21.20;65.40
27016;DHT22;14557;0.000;0.000;2023-04-24T12:18:22;21.20;65.90
27016;DHT22;14557;0.000;0.000;2023-04-24T12:20:47;21.20;67.40
27016;DHT22;14557;0.000;0.000;2023-04-24T12:23:13;21.20;66.70
27016;DHT22;14557;0.000;0.000;2023-04-24T12:25:38;21.20;65.80
27016;DHT22;14557;0.000;0.000;2023-04-24T12:30:30;21.20;62.00
27016;DHT22;14557;0.000;0.000;2023-04-24T12:32:59;21.20;61.60
27016;DHT22;14557;0.000;0.000;2023-04-24T12:35:27;21.20;61.80
27016;DHT22;14557;0.000;0.000;2023-04-24T12:37:53;21.10;61.80
27016;DHT22;14557;0.000;0.000;2023-04-24T12:40:19;21.10;61.90
27016;DHT22;14557;0.000;0.000;2023-04-24T12:42:49;21.10;61.60
27016;DHT22;14557;0.000;0.000;2023-04-24T12:45:15;21.10;61.30
27016;DHT22;14557;0.000;0.000;2023-04-24T12:47:41;21.00;60.60
27016;DHT22;14557;0.000;0.000;2023-04-24T12:50:08;21.00;60.70
27016;DHT22;14557;0.000;0.000;2023-04-24T12:52:34;21.00;60.10
27016;DHT22;14557;0.000;0.000;2023-04-24T12:54:59;21.00;60.20
27016;DHT22;14557;0.000;0.000;2023-04-24T12:57:26;21.00;60.70
27016;DHT22;14557;0.000;0.000;2023-04-24T12:59:53;21.10;68.10
27016;DHT22;14557;0.000;0.000;2023-04-24T13:02:19;21.10;65.30
27016;DHT22;14557;0.000;0.000;2023-04-24T13:04:45;21.10;64.80
27016;DHT22;14557;0.000;0.000;2023-04-24T13:07:12;21.00;63.40
27016;DHT22;14557;0.000;0.000;2023-04-24T13:09:39;21.10;62.00
27016;DHT22;14557;0.000;0.000;2023-04-24T13:12:05;21.00;61.70
27016;DHT22;14557;0.000;0.000;2023-04-24T13:14:33;21.00;61.50
27016;DHT22;14557;0.000;0.000;2023-04-24T13:16:59;21.00;60.60
27016;DHT22;14557;0.000;0.000;2023-04-24T13:19:25;21.00;63.40
27016;DHT22;14557;0.000;0.000;2023-04-24T13:21:51;21.00;61.40
27016;DHT22;14557;0.000;0.000;2023-04-24T13:24:17;21.00;61.50
27016;DHT22;14557;0.000;0.000;2023-04-24T13:26:43;21.00;60.90
27016;DHT22;14557;0.000;0.000;2023-04-24T13:29:08;21.00;60.50
27016;DHT22;14557;0.000;0.000;2023-04-24T13:31:34;21.00;60.70
27016;DHT22;14557;0.000;0.000;2023-04-24T13:34:00;20.90;60.70
27016;DHT22;14557;0.000;0.000;2023-04-24T13:36:26;20.90;61.10
27016;DHT22;14557;0.000;0.000;2023-04-24T13:38:51;20.90;61.00
27016;DHT22;14557;0.000;0.000;2023-04-24T13:41:17;20.90;60.70
27016;DHT22;14557;0.000;0.000;2023-04-24T13:43:43;20.90;60.80
27016;DHT22;14557;0.000;0.000;2023-04-24T13:46:08;20.90;60.90
27016;DHT22;14557;0.000;0.000;2023-04-24T13:48:34;20.90;60.40
27016;DHT22;14557;0.000;0.000;2023-04-24T13:50:59;20.90;60.10
27016;DHT22;14557;0.000;0.000;2023-04-24T13:53:25;20.90;60.10
27016;DHT22;14557;0.000;0.000;2023-04-24T13:55:50;20.90;59.80
27016;DHT22;14557;0.000;0.000;2023-04-24T13:58:16;20.90;59.90
27016;DHT22;14557;0.000;0.000;2023-04-24T14:00:42;20.90;59.60
27016;DHT22;14557;0.000;0.000;2023-04-24T14:03:07;20.80;59.80
27016;DHT22;14557;0.000;0.000;2023-04-24T14:05:33;20.80;59.50
27016;DHT22;14557;0.000;0.000;2023-04-24T14:07:58;20.80;59.20
27016;DHT22;14557;0.000;0.000;2023-04-24T14:10:24;20.80;58.50
27016;DHT22;14557;0.000;0.000;2023-04-24T14:12:51;20.80;58.60
27016;DHT22;14557;0.000;0.000;2023-04-24T14:15:16;20.80;59.00
27016;DHT22;14557;0.000;0.000;2023-04-24T14:17:42;20.80;58.90
27016;DHT22;14557;0.000;0.000;2023-04-24T14:20:08;20.70;58.80
27016;DHT22;14557;0.000;0.000;2023-04-24T14:22:34;20.70;58.60
27016;DHT22;14557;0.000;0.000;2023-04-24T14:24:59;20.70;58.40
27016;DHT22;14557;0.000;0.000;2023-04-24T14:27:25;20.70;58.10
27016;DHT22;14557;0.000;0.000;2023-04-24T14:29:51;20.70;58.00
27016;DHT22;14557;0.000;0.000;2023-04-24T14:32:17;20.70;57.90
27016;DHT22;14557;0.000;0.000;2023-04-24T14:34:42;20.70;58.00
27016;DHT22;14557;0.000;0.000;2023-04-24T14:37:08;20.70;58.10
27016;DHT22;14557;0.000;0.000;2023-04-24T14:39:33;20.70;58.00
27016;DHT22;14557;0.000;0.000;2023-04-24T14:42:00;20.70;57.80
27016;DHT22;14557;0.000;0.000;2023-04-24T14:44:26;20.70;57.80
27016;DHT22;14557;0.000;0.000;2023-04-24T14:46:51;20.70;58.00
27016;DHT22;14557;0.000;0.000;2023-04-24T14:49:17;20.70;58.10
27016;DHT22;14557;0.000;0.000;2023-04-24T14:51:43;20.70;58.90
27016;DHT22;14557;0.000;0.000;2023-04-24T14:54:08;20.70;57.80
27016;DHT22;14557;0.000;0.000;2023-04-24T14:56:34;20.70;58.30
27016;DHT22;14557;0.000;0.000;2023-04-24T14:59:00;20.70;58.20
27016;DHT22;14557;0.000;0.000;2023-04-24T15:01:25;20.70;58.50
27016;DHT22;14557;0.000;0.000;2023-04-24T15:03:51;20.70;58.30
27016;DHT22;14557;0.000;0.000;2023-04-24T15:06:16;20.80;56.90
27016;DHT22;14557;0.000;0.000;2023-04-24T15:08:42;20.70;55.90
27016;DHT22;14557;0.000;0.000;2023-04-24T15:11:08;20.70;55.90
27016;DHT22;14557;0.000;0.000;2023-04-24T15:13:34;20.70;56.20
27016;DHT22;14557;0.000;0.000;2023-04-24T15:16:00;20.80;56.00
27016;DHT22;14557;0.000;0.000;2023-04-24T15:18:25;20.80;55.60
27016;DHT22;14557;0.000;0.000;2023-04-24T15:20:53;20.80;55.20
27016;DHT22;14557;0.000;0.000;2023-04-24T15:23:18;20.80;55.30
27016;DHT22;14557;0.000;0.000;2023-04-24T15:25:44;20.80;55.30
27016;DHT22;14557;0.000;0.000;2023-04-24T15:28:09;20.80;55.40
27016;DHT22;14557;0.000;0.000;2023-04-24T15:30:35;20.80;55.40
27016;DHT22;14557;0.000;0.000;2023-04-24T15:33:01;20.90;55.70
27016;DHT22;14557;0.000;0.000;2023-04-24T15:35:27;20.90;55.70
27016;DHT22;14557;0.000;0.000;2023-04-24T15:37:52;20.90;55.80
27016;DHT22;14557;0.000;0.000;2023-04-24T15:40:18;20.90;56.30
27016;DHT22;14557;0.000;0.000;2023-04-24T15:42:44;20.90;56.40